sensor_id;sensor_type;location;lat;lon;timestamp;pressure;altitude;pressure_sealevel;temperature;humidity
57821;BME280;43649;49.474;8.466;2022-09-29T00:01:34;98892.72;;;8.97;100.00
57821;BME280;43649;49.474;8.466;2022-09-29T00:03:59;98872.63;;;8.84;100.00
57821;BME280;43649;49.474;8.466;2022-09-29T00:06:25;98905.66;;;9.01;100.00
57821;BME280;43649;49.474;8.466;2022-09-29T00:08:50;98908.16;;;9.03;100.00
57821;BME280;43649;49.474;8.466;2022-09-29T00:11:18;98895.78;;;9.02;100.00
57821;BME280;43649;49.474;8.466;2022-09-29T00:13:44;98891.91;;;8.96;100.00
57821;BME280;43649;49.474;8.466;2022-09-29T00:16:10;98896.44;;;8.96;100.00
57821;BME280;43649;49.474;8.466;2022-09-29T00:18:36;98897.63;;;8.93;100.00
57821;BME280;43649;49.474;8.466;2022-09-29T00:21:03;98864.72;;;8.83;100.00
57821;BME280;43649;49.474;8.466;2022-09-29T00:23:30;98882.19;;;8.87;100.00
57821;BME280;43649;49.474;8.466;2022-09-29T00:26:01;98894.94;;;8.85;100.00
57821;BME280;43649;49.474;8.466;2022-09-29T00:28:29;98895.28;;;8.90;100.00
57821;BME280;43649;49.474;8.466;2022-09-29T00:30:54;98851.16;;;8.68;100.00
57821;BME280;43649;49.474;8.466;2022-09-29T00:33:21;98873.63;;;8.75;100.00
57821;BME280;43649;49.474;8.466;2022-09-29T00:35:55;98876.84;;;8.71;100.00
57821;BME280;43649;49.474;8.466;2022-09-29T00:38:20;98895.78;;;8.85;100.00
57821;BME280;43649;49.474;8.466;2022-09-29T00:40:46;98817.44;;;8.32;100.00
57821;BME280;43649;49.474;8.466;2022-09-29T00:43:19;98890.94;;;8.81;100.00
57821;BME280;43649;49.474;8.466;2022-09-29T00:45:47;98873.16;;;8.72;100.00
57821;BME280;43649;49.474;8.466;2022-09-29T00:48:16;98857.53;;;8.59;100.00
57821;BME280;43649;49.474;8.466;2022-09-29T00:50:44;98886.38;;;8.81;100.00
57821;BME280;43649;49.474;8.466;2022-09-29T00:53:11;98892.41;;;8.83;100.00
57821;BME280;43649;49.474;8.466;2022-09-29T00:55:41;98884.88;;;8.79;100.00
57821;BME280;43649;49.474;8.466;2022-09-29T00:58:11;98890.41;;;8.77;100.00
57821;BME280;43649;49.474;8.466;2022-09-29T01:00:37;98872.63;;;8.68;100.00
57821;BME280;43649;49.474;8.466;2022-09-29T01:03:09;98887.72;;;8.77;100.00
57821;BME280;43649;49.474;8.466;2022-09-29T01:05:41;98868.28;;;8.59;100.00
57821;BME280;43649;49.474;8.466;2022-09-29T01:08:12;98859.03;;;8.53;100.00
57821;BME280;43649;49.474;8.466;2022-09-29T01:10:40;98883.53;;;8.66;100.00
57821;BME280;43649;49.474;8.466;2022-09-29T01:13:05;98881.69;;;8.75;100.00
57821;BME280;43649;49.474;8.466;2022-09-29T01:15:31;98853.69;;;8.53;100.00
57821;BME280;43649;49.474;8.466;2022-09-29T01:17:57;98852.50;;;8.56;100.00
57821;BME280;43649;49.474;8.466;2022-09-29T01:20:26;98886.25;;;8.75;100.00
57821;BME280;43649;49.474;8.466;2022-09-29T01:26:22;98882.88;;;8.64;100.00
57821;BME280;43649;49.474;8.466;2022-09-29T01:29:11;98844.25;;;8.41;100.00
57821;BME280;43649;49.474;8.466;2022-09-29T01:31:51;98832.00;;;8.22;100.00
57821;BME280;43649;49.474;8.466;2022-09-29T01:34:25;98860.22;;;8.50;100.00
57821;BME280;43649;49.474;8.466;2022-09-29T01:37:05;98882.22;;;8.54;100.00
57821;BME280;43649;49.474;8.466;2022-09-29T01:39:36;98881.88;;;8.57;100.00
57821;BME280;43649;49.474;8.466;2022-09-29T01:42:06;98886.72;;;8.62;100.00
57821;BME280;43649;49.474;8.466;2022-09-29T01:44:37;98892.41;;;8.67;100.00
57821;BME280;43649;49.474;8.466;2022-09-29T01:47:08;98885.41;;;8.66;100.00
57821;BME280;43649;49.474;8.466;2022-09-29T01:49:38;98865.09;;;8.47;100.00
57821;BME280;43649;49.474;8.466;2022-09-29T01:52:08;98893.28;;;8.67;100.00
57821;BME280;43649;49.474;8.466;2022-09-29T01:54:38;98862.22;;;8.48;100.00
57821;BME280;43649;49.474;8.466;2022-09-29T01:57:09;98886.88;;;8.68;100.00
57821;BME280;43649;49.474;8.466;2022-09-29T01:59:42;98864.75;;;8.58;100.00
57821;BME280;43649;49.474;8.466;2022-09-29T02:02:14;98893.59;;;8.73;100.00
57821;BME280;43649;49.474;8.466;2022-09-29T02:04:45;98889.09;;;8.73;100.00
57821;BME280;43649;49.474;8.466;2022-09-29T02:07:16;98864.06;;;8.56;100.00
57821;BME280;43649;49.474;8.466;2022-09-29T02:09:45;98857.69;;;8.49;100.00
57821;BME280;43649;49.474;8.466;2022-09-29T02:12:17;98832.50;;;8.33;100.00
57821;BME280;43649;49.474;8.466;2022-09-29T02:14:46;98895.97;;;8.67;100.00
57821;BME280;43649;49.474;8.466;2022-09-29T02:17:16;98870.31;;;8.57;100.00
57821;BME280;43649;49.474;8.466;2022-09-29T02:19:43;98868.94;;;8.53;100.00
57821;BME280;43649;49.474;8.466;2022-09-29T02:22:09;98890.91;;;8.73;100.00
57821;BME280;43649;49.474;8.466;2022-09-29T02:24:35;98898.63;;;8.76;100.00
57821;BME280;43649;49.474;8.466;2022-09-29T02:27:01;98882.88;;;8.64;100.00
57821;BME280;43649;49.474;8.466;2022-09-29T02:29:27;98875.81;;;8.63;100.00
57821;BME280;43649;49.474;8.466;2022-09-29T02:31:54;98907.22;;;8.79;100.00
57821;BME280;43649;49.474;8.466;2022-09-29T02:34:21;98898.31;;;8.71;100.00
57821;BME280;43649;49.474;8.466;2022-09-29T02:36:55;98896.81;;;8.76;100.00
57821;BME280;43649;49.474;8.466;2022-09-29T02:39:29;98864.09;;;8.64;100.00
57821;BME280;43649;49.474;8.466;2022-09-29T02:42:07;98879.84;;;8.84;100.00
57821;BME280;43649;49.474;8.466;2022-09-29T02:44:49;98896.63;;;8.78;100.00
57821;BME280;43649;49.474;8.466;2022-09-29T02:47:34;98906.69;;;8.84;100.00
57821;BME280;43649;49.474;8.466;2022-09-29T02:50:18;98900.31;;;8.85;100.00
57821;BME280;43649;49.474;8.466;2022-09-29T02:52:51;98894.94;;;8.77;100.00
57821;BME280;43649;49.474;8.466;2022-09-29T02:55:24;98902.34;;;8.75;100.00
57821;BME280;43649;49.474;8.466;2022-09-29T02:57:55;98882.19;;;8.62;100.00
57821;BME280;43649;49.474;8.466;2022-09-29T03:00:25;98903.50;;;8.80;100.00
57821;BME280;43649;49.474;8.466;2022-09-29T03:02:51;98901.66;;;8.81;100.00
57821;BME280;43649;49.474;8.466;2022-09-29T03:05:19;98904.19;;;8.74;100.00
57821;BME280;43649;49.474;8.466;2022-09-29T03:07:46;98903.34;;;8.74;100.00
57821;BME280;43649;49.474;8.466;2022-09-29T03:10:13;98896.28;;;8.73;100.00
57821;BME280;43649;49.474;8.466;2022-09-29T03:12:38;98902.34;;;8.75;100.00
57821;BME280;43649;49.474;8.466;2022-09-29T03:15:05;98897.31;;;8.72;100.00
57821;BME280;43649;49.474;8.466;2022-09-29T03:17:31;98894.63;;;8.72;100.00
57821;BME280;43649;49.474;8.466;2022-09-29T03:19:57;98894.94;;;8.68;100.00
57821;BME280;43649;49.474;8.466;2022-09-29T03:22:24;98875.16;;;8.53;100.00
57821;BME280;43649;49.474;8.466;2022-09-29T03:24:50;98899.16;;;8.71;100.00
57821;BME280;43649;49.474;8.466;2022-09-29T03:27:15;98872.13;;;8.64;100.00
57821;BME280;43649;49.474;8.466;2022-09-29T03:29:41;98876.66;;;8.64;100.00
57821;BME280;43649;49.474;8.466;2022-09-29T03:32:06;98891.59;;;8.66;100.00
57821;BME280;43649;49.474;8.466;2022-09-29T03:34:32;98887.72;;;8.61;100.00
57821;BME280;43649;49.474;8.466;2022-09-29T03:36:58;98894.13;;;8.60;100.00
57821;BME280;43649;49.474;8.466;2022-09-29T03:39:25;98862.03;;;8.42;100.00
57821;BME280;43649;49.474;8.466;2022-09-29T03:41:50;98893.28;;;8.59;100.00
57821;BME280;43649;49.474;8.466;2022-09-29T03:44:16;98867.59;;;8.48;100.00
57821;BME280;43649;49.474;8.466;2022-09-29T03:46:42;98890.91;;;8.73;100.00
57821;BME280;43649;49.474;8.466;2022-09-29T03:49:09;98896.97;;;8.75;100.00
57821;BME280;43649;49.474;8.466;2022-09-29T03:51:35;98870.31;;;8.57;100.00
57821;BME280;43649;49.474;8.466;2022-09-29T03:54:00;98863.72;;;8.59;100.00
57821;BME280;43649;49.474;8.466;2022-09-29T03:56:27;98899.66;;;8.83;100.00
57821;BME280;43649;49.474;8.466;2022-09-29T03:58:52;98895.09;;;8.83;100.00
57821;BME280;43649;49.474;8.466;2022-09-29T04:01:18;98869.94;;;8.68;100.00
57821;BME280;43649;49.474;8.466;2022-09-29T04:03:43;98904.19;;;8.82;100.00
57821;BME280;43649;49.474;8.466;2022-09-29T04:06:09;98905.00;;;8.83;100.00
57821;BME280;43649;49.474;8.466;2022-09-29T04:08:35;98893.63;;;8.81;100.00
57821;BME280;43649;49.474;8.466;2022-09-29T04:11:00;98870.78;;;8.60;100.00
57821;BME280;43649;49.474;8.466;2022-09-29T04:13:27;98875.66;;;8.65;100.00
57821;BME280;43649;49.474;8.466;2022-09-29T04:15:56;98893.09;;;8.77;100.00
57821;BME280;43649;49.474;8.466;2022-09-29T04:18:22;98863.25;;;8.56;100.00
57821;BME280;43649;49.474;8.466;2022-09-29T04:20:47;98867.78;;;8.63;100.00
57821;BME280;43649;49.474;8.466;2022-09-29T04:23:13;98866.41;;;8.59;100.00
57821;BME280;43649;49.474;8.466;2022-09-29T04:25:38;98893.78;;;8.79;100.00
57821;BME280;43649;49.474;8.466;2022-09-29T04:28:04;98855.34;;;8.54;100.00
57821;BME280;43649;49.474;8.466;2022-09-29T04:30:30;98889.06;;;8.65;100.00
57821;BME280;43649;49.474;8.466;2022-09-29T04:32:56;98865.41;;;8.36;100.00
57821;BME280;43649;49.474;8.466;2022-09-29T04:35:21;98911.38;;;8.65;100.00
57821;BME280;43649;49.474;8.466;2022-09-29T04:37:47;98911.56;;;8.64;100.00
57821;BME280;43649;49.474;8.466;2022-09-29T04:40:12;98815.72;;;8.07;100.00
57821;BME280;43649;49.474;8.466;2022-09-29T04:42:38;98866.72;;;8.40;100.00
57821;BME280;43649;49.474;8.466;2022-09-29T04:45:04;98873.31;;;8.45;100.00
57821;BME280;43649;49.474;8.466;2022-09-29T04:47:31;98883.00;;;8.38;100.00
57821;BME280;43649;49.474;8.466;2022-09-29T04:49:56;98918.13;;;8.61;100.00
57821;BME280;43649;49.474;8.466;2022-09-29T04:52:21;98903.50;;;8.56;100.00
57821;BME280;43649;49.474;8.466;2022-09-29T04:54:47;98887.88;;;8.35;100.00
57821;BME280;43649;49.474;8.466;2022-09-29T04:57:12;98895.59;;;8.38;100.00
57821;BME280;43649;49.474;8.466;2022-09-29T04:59:38;98899.63;;;8.42;100.00
57821;BME280;43649;49.474;8.466;2022-09-29T05:02:03;98882.16;;;8.29;100.00
57821;BME280;43649;49.474;8.466;2022-09-29T05:04:30;98882.66;;;8.25;100.00
57821;BME280;43649;49.474;8.466;2022-09-29T05:06:55;98889.88;;;8.24;100.00
57821;BME280;43649;49.474;8.466;2022-09-29T05:09:21;98907.50;;;8.35;100.00
57821;BME280;43649;49.474;8.466;2022-09-29T05:11:46;98926.16;;;8.45;100.00
57821;BME280;43649;49.474;8.466;2022-09-29T05:14:12;98846.88;;;7.83;100.00
57821;BME280;43649;49.474;8.466;2022-09-29T05:16:37;98914.84;;;8.17;100.00
57821;BME280;43649;49.474;8.466;2022-09-29T05:19:02;98923.44;;;8.28;100.00
57821;BME280;43649;49.474;8.466;2022-09-29T05:21:29;98920.06;;;8.18;100.00
57821;BME280;43649;49.474;8.466;2022-09-29T05:23:55;98913.31;;;8.14;100.00
57821;BME280;43649;49.474;8.466;2022-09-29T05:26:21;98934.47;;;8.17;100.00
57821;BME280;43649;49.474;8.466;2022-09-29T05:28:46;98930.97;;;8.33;100.00
57821;BME280;43649;49.474;8.466;2022-09-29T05:31:13;98917.38;;;8.26;100.00
57821;BME280;43649;49.474;8.466;2022-09-29T05:33:39;98939.72;;;8.43;100.00
57821;BME280;43649;49.474;8.466;2022-09-29T05:36:06;98928.78;;;8.37;100.00
57821;BME280;43649;49.474;8.466;2022-09-29T05:38:34;98915.38;;;8.28;100.00
57821;BME280;43649;49.474;8.466;2022-09-29T05:41:03;98912.69;;;8.28;100.00
57821;BME280;43649;49.474;8.466;2022-09-29T05:43:28;98913.34;;;8.30;100.00
57821;BME280;43649;49.474;8.466;2022-09-29T05:45:58;98910.69;;;8.39;100.00
57821;BME280;43649;49.474;8.466;2022-09-29T05:48:24;98911.66;;;8.29;100.00
57821;BME280;43649;49.474;8.466;2022-09-29T05:50:52;98932.66;;;8.42;100.00
57821;BME280;43649;49.474;8.466;2022-09-29T05:53:18;98915.72;;;8.25;100.00
57821;BME280;43649;49.474;8.466;2022-09-29T05:55:45;98929.97;;;8.34;100.00
57821;BME280;43649;49.474;8.466;2022-09-29T05:58:10;98904.94;;;8.17;100.00
57821;BME280;43649;49.474;8.466;2022-09-29T06:00:35;98918.38;;;8.33;100.00
57821;BME280;43649;49.474;8.466;2022-09-29T06:03:01;98913.19;;;8.32;100.00
57821;BME280;43649;49.474;8.466;2022-09-29T06:05:27;98961.09;;;8.61;100.00
57821;BME280;43649;49.474;8.466;2022-09-29T06:07:55;98944.78;;;8.55;100.00
57821;BME280;43649;49.474;8.466;2022-09-29T06:10:21;98908.19;;;8.37;100.00
57821;BME280;43649;49.474;8.466;2022-09-29T06:12:48;98898.28;;;8.46;100.00
57821;BME280;43649;49.474;8.466;2022-09-29T06:15:16;98965.59;;;8.77;100.00
57821;BME280;43649;49.474;8.466;2022-09-29T06:17:42;98965.78;;;8.76;100.00
57821;BME280;43649;49.474;8.466;2022-09-29T06:20:08;98965.28;;;8.72;100.00
57821;BME280;43649;49.474;8.466;2022-09-29T06:22:33;98963.94;;;8.76;100.00
57821;BME280;43649;49.474;8.466;2022-09-29T06:24:59;98943.47;;;8.75;100.00
57821;BME280;43649;49.474;8.466;2022-09-29T06:27:24;98972.50;;;8.96;100.00
57821;BME280;43649;49.474;8.466;2022-09-29T06:29:52;98953.50;;;8.90;100.00
57821;BME280;43649;49.474;8.466;2022-09-29T06:32:17;98952.38;;;8.84;100.00
57821;BME280;43649;49.474;8.466;2022-09-29T06:34:46;98961.59;;;8.98;100.00
57821;BME280;43649;49.474;8.466;2022-09-29T06:37:11;98963.59;;;9.04;100.00
57821;BME280;43649;49.474;8.466;2022-09-29T06:39:37;98956.69;;;9.01;100.00
57821;BME280;43649;49.474;8.466;2022-09-29T06:42:03;98951.69;;;9.07;100.00
57821;BME280;43649;49.474;8.466;2022-09-29T06:44:28;98963.91;;;9.17;100.00
57821;BME280;43649;49.474;8.466;2022-09-29T06:46:56;98965.41;;;9.28;100.00
57821;BME280;43649;49.474;8.466;2022-09-29T06:49:22;98913.06;;;8.99;100.00
57821;BME280;43649;49.474;8.466;2022-09-29T06:51:50;98939.41;;;9.12;100.00
57821;BME280;43649;49.474;8.466;2022-09-29T06:54:17;98973.63;;;9.43;100.00
57821;BME280;43649;49.474;8.466;2022-09-29T06:56:46;98919.75;;;9.20;100.00
57821;BME280;43649;49.474;8.466;2022-09-29T06:59:11;98966.38;;;9.52;100.00
57821;BME280;43649;49.474;8.466;2022-09-29T07:01:37;98925.63;;;9.15;100.00
57821;BME280;43649;49.474;8.466;2022-09-29T07:04:03;98943.25;;;9.18;100.00
57821;BME280;43649;49.474;8.466;2022-09-29T07:06:29;98954.84;;;9.27;100.00
57821;BME280;43649;49.474;8.466;2022-09-29T07:08:55;98980.00;;;9.42;100.00
57821;BME280;43649;49.474;8.466;2022-09-29T07:11:21;98938.03;;;9.16;100.00
57821;BME280;43649;49.474;8.466;2022-09-29T07:13:47;98972.66;;;9.28;100.00
57821;BME280;43649;49.474;8.466;2022-09-29T07:16:13;98941.94;;;9.14;100.00
57821;BME280;43649;49.474;8.466;2022-09-29T07:18:40;98939.72;;;9.17;100.00
57821;BME280;43649;49.474;8.466;2022-09-29T07:21:09;98983.53;;;9.43;100.00
57821;BME280;43649;49.474;8.466;2022-09-29T07:23:35;98934.34;;;9.17;100.00
57821;BME280;43649;49.474;8.466;2022-09-29T07:26:02;98981.00;;;9.49;100.00
57821;BME280;43649;49.474;8.466;2022-09-29T07:28:28;98963.88;;;9.42;100.00
57821;BME280;43649;49.474;8.466;2022-09-29T07:30:58;98992.41;;;9.60;100.00
57821;BME280;43649;49.474;8.466;2022-09-29T07:33:23;98948.94;;;9.31;100.00
57821;BME280;43649;49.474;8.466;2022-09-29T07:35:51;98998.31;;;9.55;100.00
57821;BME280;43649;49.474;8.466;2022-09-29T07:38:17;98984.00;;;9.63;100.00
57821;BME280;43649;49.474;8.466;2022-09-29T07:40:43;98992.09;;;9.54;100.00
57821;BME280;43649;49.474;8.466;2022-09-29T07:43:08;99001.81;;;9.64;100.00
57821;BME280;43649;49.474;8.466;2022-09-29T07:45:34;99001.28;;;9.68;100.00
57821;BME280;43649;49.474;8.466;2022-09-29T07:48:00;98989.88;;;9.50;100.00
57821;BME280;43649;49.474;8.466;2022-09-29T07:50:25;98991.28;;;9.46;100.00
57821;BME280;43649;49.474;8.466;2022-09-29T07:52:51;98998.78;;;9.59;100.00
57821;BME280;43649;49.474;8.466;2022-09-29T07:55:18;99000.00;;;9.56;100.00
57821;BME280;43649;49.474;8.466;2022-09-29T07:57:45;99010.72;;;9.64;100.00
57821;BME280;43649;49.474;8.466;2022-09-29T08:00:12;98988.88;;;9.59;100.00
57821;BME280;43649;49.474;8.466;2022-09-29T08:02:37;99011.53;;;9.65;100.00
57821;BME280;43649;49.474;8.466;2022-09-29T08:05:03;99016.06;;;9.72;100.00
57821;BME280;43649;49.474;8.466;2022-09-29T08:07:29;99022.13;;;9.74;100.00
57821;BME280;43649;49.474;8.466;2022-09-29T08:09:54;99022.78;;;9.77;100.00
57821;BME280;43649;49.474;8.466;2022-09-29T08:12:21;99002.94;;;9.78;100.00
57821;BME280;43649;49.474;8.466;2022-09-29T08:14:46;99010.97;;;9.86;100.00
57821;BME280;43649;49.474;8.466;2022-09-29T08:17:12;99008.31;;;9.78;100.00
57821;BME280;43649;49.474;8.466;2022-09-29T08:19:37;99017.38;;;9.85;100.00
57821;BME280;43649;49.474;8.466;2022-09-29T08:22:04;99025.78;;;9.90;100.00
57821;BME280;43649;49.474;8.466;2022-09-29T08:24:30;99028.13;;;9.93;100.00
57821;BME280;43649;49.474;8.466;2022-09-29T08:26:55;99028.44;;;9.98;100.00
57821;BME280;43649;49.474;8.466;2022-09-29T08:29:22;99013.50;;;9.87;100.00
57821;BME280;43649;49.474;8.466;2022-09-29T08:31:48;99030.44;;;10.04;100.00
57821;BME280;43649;49.474;8.466;2022-09-29T08:34:14;99030.22;;;10.14;100.00
57821;BME280;43649;49.474;8.466;2022-09-29T08:36:39;99032.09;;;10.14;100.00
57821;BME280;43649;49.474;8.466;2022-09-29T08:39:05;99039.63;;;10.18;100.00
57821;BME280;43649;49.474;8.466;2022-09-29T08:41:37;99042.09;;;10.28;100.00
57821;BME280;43649;49.474;8.466;2022-09-29T08:44:11;99039.06;;;10.31;100.00
57821;BME280;43649;49.474;8.466;2022-09-29T08:46:43;99036.19;;;10.41;100.00
57821;BME280;43649;49.474;8.466;2022-09-29T08:49:15;99031.28;;;10.44;100.00
57821;BME280;43649;49.474;8.466;2022-09-29T08:51:46;99043.38;;;10.49;100.00
57821;BME280;43649;49.474;8.466;2022-09-29T08:54:20;99048.59;;;10.50;100.00
57821;BME280;43649;49.474;8.466;2022-09-29T08:56:47;99056.41;;;10.68;100.00
57821;BME280;43649;49.474;8.466;2022-09-29T08:59:13;99054.00;;;10.73;100.00
57821;BME280;43649;49.474;8.466;2022-09-29T09:01:49;99019.31;;;10.47;100.00
57821;BME280;43649;49.474;8.466;2022-09-29T09:04:51;99060.88;;;10.84;100.00
57821;BME280;43649;49.474;8.466;2022-09-29T09:07:27;99055.66;;;10.83;100.00
57821;BME280;43649;49.474;8.466;2022-09-29T09:10:03;99049.66;;;10.72;100.00
57821;BME280;43649;49.474;8.466;2022-09-29T09:12:50;99051.53;;;10.95;100.00
57821;BME280;43649;49.474;8.466;2022-09-29T09:15:31;99053.97;;;11.05;100.00
57821;BME280;43649;49.474;8.466;2022-09-29T09:18:16;99061.88;;;11.29;100.00
57821;BME280;43649;49.474;8.466;2022-09-29T09:20:51;99060.25;;;11.43;100.00
57821;BME280;43649;49.474;8.466;2022-09-29T09:23:20;99042.81;;;11.31;99.44
57821;BME280;43649;49.474;8.466;2022-09-29T09:25:48;99060.97;;;11.37;99.12
57821;BME280;43649;49.474;8.466;2022-09-29T09:28:17;99067.38;;;11.36;98.86
57821;BME280;43649;49.474;8.466;2022-09-29T09:30:48;99061.84;;;11.52;98.54
57821;BME280;43649;49.474;8.466;2022-09-29T09:33:22;99059.78;;;11.55;97.82
57821;BME280;43649;49.474;8.466;2022-09-29T09:35:51;99067.25;;;11.52;98.05
57821;BME280;43649;49.474;8.466;2022-09-29T09:38:21;99070.25;;;11.58;98.61
57821;BME280;43649;49.474;8.466;2022-09-29T09:40:51;99029.75;;;11.20;97.76
57821;BME280;43649;49.474;8.466;2022-09-29T09:43:21;99051.13;;;11.44;97.52
57821;BME280;43649;49.474;8.466;2022-09-29T09:45:54;99047.00;;;11.33;96.18
57821;BME280;43649;49.474;8.466;2022-09-29T09:48:28;99073.00;;;11.49;96.10
57821;BME280;43649;49.474;8.466;2022-09-29T09:50:55;99064.84;;;11.58;96.99
57821;BME280;43649;49.474;8.466;2022-09-29T09:53:25;99042.31;;;11.50;95.96
57821;BME280;43649;49.474;8.466;2022-09-29T09:55:57;99034.00;;;11.37;95.57
57821;BME280;43649;49.474;8.466;2022-09-29T09:58:36;99072.69;;;11.82;95.42
57821;BME280;43649;49.474;8.466;2022-09-29T10:01:09;99066.56;;;11.89;94.42
57821;BME280;43649;49.474;8.466;2022-09-29T10:03:36;99053.63;;;11.84;92.76
57821;BME280;43649;49.474;8.466;2022-09-29T10:06:02;99054.41;;;11.93;93.17
57821;BME280;43649;49.474;8.466;2022-09-29T10:08:32;99067.72;;;12.09;93.26
57821;BME280;43649;49.474;8.466;2022-09-29T10:10:58;99068.09;;;12.21;93.12
57821;BME280;43649;49.474;8.466;2022-09-29T10:13:25;99066.78;;;12.32;93.05
57821;BME280;43649;49.474;8.466;2022-09-29T10:15:53;99069.56;;;12.24;91.35
57821;BME280;43649;49.474;8.466;2022-09-29T10:18:23;99078.34;;;12.26;90.03
57821;BME280;43649;49.474;8.466;2022-09-29T10:20:52;99072.38;;;12.30;92.02
57821;BME280;43649;49.474;8.466;2022-09-29T10:23:26;99077.84;;;12.37;93.02
57821;BME280;43649;49.474;8.466;2022-09-29T10:25:56;99081.47;;;12.44;91.70
57821;BME280;43649;49.474;8.466;2022-09-29T10:28:23;99080.72;;;12.50;91.83
57821;BME280;43649;49.474;8.466;2022-09-29T10:30:50;99081.16;;;12.54;91.68
57821;BME280;43649;49.474;8.466;2022-09-29T10:33:21;99073.38;;;12.44;91.86
57821;BME280;43649;49.474;8.466;2022-09-29T10:35:48;99067.41;;;12.34;91.33
57821;BME280;43649;49.474;8.466;2022-09-29T10:38:17;99081.84;;;12.56;92.07
57821;BME280;43649;49.474;8.466;2022-09-29T10:40:55;99084.03;;;12.67;91.34
57821;BME280;43649;49.474;8.466;2022-09-29T10:43:23;99077.31;;;12.78;90.91
57821;BME280;43649;49.474;8.466;2022-09-29T10:45:49;99075.13;;;12.88;93.08
57821;BME280;43649;49.474;8.466;2022-09-29T10:48:15;99082.38;;;12.66;90.58
57821;BME280;43649;49.474;8.466;2022-09-29T10:50:49;99078.66;;;12.52;90.25
57821;BME280;43649;49.474;8.466;2022-09-29T10:53:24;99077.59;;;12.32;89.60
57821;BME280;43649;49.474;8.466;2022-09-29T10:55:54;99079.41;;;12.46;88.21
57821;BME280;43649;49.474;8.466;2022-09-29T10:58:28;99082.03;;;12.54;88.04
57821;BME280;43649;49.474;8.466;2022-09-29T11:01:03;99058.38;;;12.42;90.77
57821;BME280;43649;49.474;8.466;2022-09-29T11:03:30;99068.22;;;12.49;90.94
57821;BME280;43649;49.474;8.466;2022-09-29T11:05:58;99059.88;;;12.44;90.42
57821;BME280;43649;49.474;8.466;2022-09-29T11:08:29;99073.78;;;12.63;88.51
57821;BME280;43649;49.474;8.466;2022-09-29T11:11:05;99080.38;;;12.75;87.11
57821;BME280;43649;49.474;8.466;2022-09-29T11:13:37;99081.13;;;12.69;87.54
57821;BME280;43649;49.474;8.466;2022-09-29T11:16:07;99067.94;;;12.59;87.34
57821;BME280;43649;49.474;8.466;2022-09-29T11:18:37;99066.50;;;12.78;88.13
57821;BME280;43649;49.474;8.466;2022-09-29T11:21:17;99069.72;;;12.88;87.89
57821;BME280;43649;49.474;8.466;2022-09-29T11:23:49;99074.94;;;12.90;85.90
57821;BME280;43649;49.474;8.466;2022-09-29T11:26:24;99084.81;;;12.98;86.61
57821;BME280;43649;49.474;8.466;2022-09-29T11:29:10;99076.13;;;13.02;85.89
57821;BME280;43649;49.474;8.466;2022-09-29T11:31:45;99083.06;;;13.12;85.14
57821;BME280;43649;49.474;8.466;2022-09-29T11:34:32;99087.53;;;13.19;85.94
57821;BME280;43649;49.474;8.466;2022-09-29T11:37:04;99085.34;;;13.30;86.42
57821;BME280;43649;49.474;8.466;2022-09-29T11:39:43;99089.50;;;13.32;81.68
57821;BME280;43649;49.474;8.466;2022-09-29T11:42:12;99084.44;;;13.22;78.93
57821;BME280;43649;49.474;8.466;2022-09-29T11:44:55;99062.72;;;13.16;79.56
57821;BME280;43649;49.474;8.466;2022-09-29T11:50:19;99078.00;;;13.23;79.30
57821;BME280;43649;49.474;8.466;2022-09-29T11:53:04;99083.94;;;13.34;80.02
57821;BME280;43649;49.474;8.466;2022-09-29T11:55:47;99081.03;;;13.35;80.84
57821;BME280;43649;49.474;8.466;2022-09-29T11:58:30;99043.28;;;13.27;80.67
57821;BME280;43649;49.474;8.466;2022-09-29T12:01:09;99081.72;;;13.66;80.86
57821;BME280;43649;49.474;8.466;2022-09-29T12:03:43;99079.84;;;13.66;79.54
57821;BME280;43649;49.474;8.466;2022-09-29T12:06:31;99068.63;;;13.69;79.37
57821;BME280;43649;49.474;8.466;2022-09-29T12:09:07;99030.59;;;13.49;79.43
57821;BME280;43649;49.474;8.466;2022-09-29T12:11:49;99071.38;;;13.76;78.84
57821;BME280;43649;49.474;8.466;2022-09-29T12:14:21;99063.00;;;13.71;79.72
57821;BME280;43649;49.474;8.466;2022-09-29T12:16:53;99072.81;;;13.72;77.28
57821;BME280;43649;49.474;8.466;2022-09-29T12:19:23;99031.47;;;13.56;77.81
57821;BME280;43649;49.474;8.466;2022-09-29T12:21:53;99067.84;;;13.75;79.49
57821;BME280;43649;49.474;8.466;2022-09-29T12:24:25;99078.94;;;13.80;79.54
57821;BME280;43649;49.474;8.466;2022-09-29T12:26:53;99071.00;;;13.79;78.91
57821;BME280;43649;49.474;8.466;2022-09-29T12:29:28;99072.03;;;13.78;78.85
57821;BME280;43649;49.474;8.466;2022-09-29T12:31:57;99072.25;;;13.83;78.23
57821;BME280;43649;49.474;8.466;2022-09-29T12:34:31;99073.75;;;13.86;78.83
57821;BME280;43649;49.474;8.466;2022-09-29T12:37:04;99070.63;;;13.89;78.26
57821;BME280;43649;49.474;8.466;2022-09-29T12:39:40;99042.97;;;13.65;76.85
57821;BME280;43649;49.474;8.466;2022-09-29T12:42:16;99062.81;;;13.72;76.57
57821;BME280;43649;49.474;8.466;2022-09-29T12:44:48;99081.25;;;13.84;76.50
57821;BME280;43649;49.474;8.466;2022-09-29T12:47:22;99034.91;;;13.72;76.83
57821;BME280;43649;49.474;8.466;2022-09-29T12:50:00;99076.28;;;13.94;77.35
57821;BME280;43649;49.474;8.466;2022-09-29T12:52:31;99084.81;;;13.91;77.69
57821;BME280;43649;49.474;8.466;2022-09-29T12:55:01;99083.59;;;13.93;77.69
57821;BME280;43649;49.474;8.466;2022-09-29T12:57:34;99041.97;;;13.73;77.19
57821;BME280;43649;49.474;8.466;2022-09-29T13:00:04;99063.75;;;13.86;75.89
57821;BME280;43649;49.474;8.466;2022-09-29T13:02:58;99019.97;;;13.48;75.08
57821;BME280;43649;49.474;8.466;2022-09-29T13:05:47;99052.41;;;13.76;74.21
57821;BME280;43649;49.474;8.466;2022-09-29T13:08:29;99082.34;;;13.96;74.84
57821;BME280;43649;49.474;8.466;2022-09-29T13:11:14;99075.44;;;13.87;73.76
57821;BME280;43649;49.474;8.466;2022-09-29T13:13:57;99040.13;;;13.73;75.06
57821;BME280;43649;49.474;8.466;2022-09-29T13:16:39;99043.16;;;13.63;74.36
57821;BME280;43649;49.474;8.466;2022-09-29T13:22:33;99050.16;;;13.79;73.78